sensor_id;sensor_type;location;lat;lon;timestamp;P1;durP1;ratioP1;P2;durP2;ratioP2
72929;SDS011;61073;54.260;20.816;2022-09-09T00:04:52;1.60;;;1.30;;
72929;SDS011;61073;54.260;20.816;2022-09-09T00:07:47;2.38;;;1.60;;
72929;SDS011;61073;54.260;20.816;2022-09-09T00:13:11;2.30;;;1.30;;
72929;SDS011;61073;54.260;20.816;2022-09-09T00:21:51;1.98;;;1.67;;
72929;SDS011;61073;54.260;20.816;2022-09-09T00:24:24;1.63;;;1.40;;
72929;SDS011;61073;54.260;20.816;2022-09-09T00:27:04;3.10;;;1.50;;
72929;SDS011;61073;54.260;20.816;2022-09-09T00:32:29;1.83;;;1.50;;
72929;SDS011;61073;54.260;20.816;2022-09-09T00:35:11;3.97;;;1.60;;
72929;SDS011;61073;54.260;20.816;2022-09-09T00:37:48;1.85;;;1.30;;
72929;SDS011;61073;54.260;20.816;2022-09-09T00:48:50;1.80;;;1.10;;
72929;SDS011;61073;54.260;20.816;2022-09-09T00:57:31;1.90;;;1.48;;
72929;SDS011;61073;54.260;20.816;2022-09-09T01:03:06;1.55;;;1.45;;
72929;SDS011;61073;54.260;20.816;2022-09-09T01:17:31;1.90;;;1.50;;
72929;SDS011;61073;54.260;20.816;2022-09-09T01:28:52;1.75;;;1.27;;
72929;SDS011;61073;54.260;20.816;2022-09-09T01:31:20;2.65;;;1.58;;
72929;SDS011;61073;54.260;20.816;2022-09-09T01:33:58;3.88;;;1.40;;
72929;SDS011;61073;54.260;20.816;2022-09-09T01:39:13;1.23;;;1.02;;
72929;SDS011;61073;54.260;20.816;2022-09-09T01:44:07;2.85;;;1.30;;
72929;SDS011;61073;54.260;20.816;2022-09-09T01:46:34;1.92;;;1.73;;
72929;SDS011;61073;54.260;20.816;2022-09-09T01:49:02;1.50;;;1.15;;
72929;SDS011;61073;54.260;20.816;2022-09-09T01:51:30;1.50;;;1.35;;
72929;SDS011;61073;54.260;20.816;2022-09-09T01:53:57;2.25;;;1.30;;
72929;SDS011;61073;54.260;20.816;2022-09-09T01:59:16;2.55;;;1.23;;
72929;SDS011;61073;54.260;20.816;2022-09-09T02:04:55;2.13;;;1.50;;
72929;SDS011;61073;54.260;20.816;2022-09-09T02:07:37;1.70;;;1.33;;
72929;SDS011;61073;54.260;20.816;2022-09-09T02:10:25;1.40;;;1.30;;
72929;SDS011;61073;54.260;20.816;2022-09-09T02:13:20;1.83;;;1.65;;
72929;SDS011;61073;54.260;20.816;2022-09-09T02:18:55;1.30;;;1.20;;
72929;SDS011;61073;54.260;20.816;2022-09-09T02:21:39;2.38;;;1.50;;
72929;SDS011;61073;54.260;20.816;2022-09-09T02:24:09;3.17;;;1.40;;
72929;SDS011;61073;54.260;20.816;2022-09-09T02:26:39;2.10;;;1.40;;
72929;SDS011;61073;54.260;20.816;2022-09-09T02:29:11;3.55;;;1.40;;
72929;SDS011;61073;54.260;20.816;2022-09-09T02:31:45;2.50;;;1.27;;
72929;SDS011;61073;54.260;20.816;2022-09-09T02:34:14;1.77;;;1.30;;
72929;SDS011;61073;54.260;20.816;2022-09-09T02:36:43;1.30;;;1.15;;
72929;SDS011;61073;54.260;20.816;2022-09-09T02:39:13;1.17;;;1.08;;
72929;SDS011;61073;54.260;20.816;2022-09-09T02:41:41;2.55;;;1.60;;
72929;SDS011;61073;54.260;20.816;2022-09-09T02:44:12;2.97;;;1.33;;
72929;SDS011;61073;54.260;20.816;2022-09-09T02:46:54;2.38;;;1.40;;
72929;SDS011;61073;54.260;20.816;2022-09-09T02:52:38;1.52;;;1.08;;
72929;SDS011;61073;54.260;20.816;2022-09-09T02:58:20;1.92;;;1.17;;
72929;SDS011;61073;54.260;20.816;2022-09-09T03:00:48;1.58;;;1.17;;
72929;SDS011;61073;54.260;20.816;2022-09-09T03:03:17;1.92;;;1.50;;
72929;SDS011;61073;54.260;20.816;2022-09-09T03:05:44;2.38;;;1.70;;
72929;SDS011;61073;54.260;20.816;2022-09-09T03:08:11;1.70;;;1.42;;
72929;SDS011;61073;54.260;20.816;2022-09-09T03:10:39;2.08;;;1.63;;
72929;SDS011;61073;54.260;20.816;2022-09-09T03:13:06;3.00;;;1.10;;
72929;SDS011;61073;54.260;20.816;2022-09-09T03:15:32;1.40;;;1.17;;
72929;SDS011;61073;54.260;20.816;2022-09-09T03:18:00;2.38;;;1.30;;
72929;SDS011;61073;54.260;20.816;2022-09-09T03:20:28;1.55;;;1.40;;
72929;SDS011;61073;54.260;20.816;2022-09-09T03:22:56;1.38;;;1.27;;
72929;SDS011;61073;54.260;20.816;2022-09-09T03:25:23;1.88;;;1.15;;
72929;SDS011;61073;54.260;20.816;2022-09-09T03:27:51;2.10;;;1.25;;
72929;SDS011;61073;54.260;20.816;2022-09-09T03:30:24;1.95;;;1.38;;
72929;SDS011;61073;54.260;20.816;2022-09-09T03:32:52;4.07;;;1.55;;
72929;SDS011;61073;54.260;20.816;2022-09-09T03:35:19;1.63;;;1.42;;
72929;SDS011;61073;54.260;20.816;2022-09-09T03:37:46;1.75;;;1.45;;
72929;SDS011;61073;54.260;20.816;2022-09-09T03:40:13;2.17;;;1.40;;
72929;SDS011;61073;54.260;20.816;2022-09-09T03:42:40;2.30;;;1.42;;
72929;SDS011;61073;54.260;20.816;2022-09-09T03:45:07;1.80;;;1.00;;
72929;SDS011;61073;54.260;20.816;2022-09-09T03:47:35;1.45;;;1.30;;
72929;SDS011;61073;54.260;20.816;2022-09-09T03:50:02;1.67;;;1.50;;
72929;SDS011;61073;54.260;20.816;2022-09-09T03:52:34;1.85;;;1.52;;
72929;SDS011;61073;54.260;20.816;2022-09-09T03:55:02;1.40;;;1.30;;
72929;SDS011;61073;54.260;20.816;2022-09-09T03:57:29;1.55;;;1.38;;
72929;SDS011;61073;54.260;20.816;2022-09-09T03:59:56;1.38;;;1.27;;
72929;SDS011;61073;54.260;20.816;2022-09-09T04:02:23;1.60;;;1.33;;
72929;SDS011;61073;54.260;20.816;2022-09-09T04:04:50;3.08;;;1.23;;
72929;SDS011;61073;54.260;20.816;2022-09-09T04:07:16;1.60;;;1.40;;
72929;SDS011;61073;54.260;20.816;2022-09-09T04:09:43;2.60;;;1.27;;
72929;SDS011;61073;54.260;20.816;2022-09-09T04:14:39;1.40;;;1.30;;
72929;SDS011;61073;54.260;20.816;2022-09-09T04:19:32;2.70;;;1.55;;
72929;SDS011;61073;54.260;20.816;2022-09-09T04:21:59;1.20;;;1.10;;
72929;SDS011;61073;54.260;20.816;2022-09-09T04:24:26;1.40;;;1.30;;
72929;SDS011;61073;54.260;20.816;2022-09-09T04:26:53;1.92;;;1.25;;
72929;SDS011;61073;54.260;20.816;2022-09-09T04:29:20;1.77;;;1.40;;
72929;SDS011;61073;54.260;20.816;2022-09-09T04:31:46;0.90;;;0.90;;
72929;SDS011;61073;54.260;20.816;2022-09-09T04:36:39;2.00;;;1.58;;
72929;SDS011;61073;54.260;20.816;2022-09-09T04:39:06;1.88;;;1.40;;
72929;SDS011;61073;54.260;20.816;2022-09-09T04:41:33;1.92;;;1.40;;
72929;SDS011;61073;54.260;20.816;2022-09-09T04:44:00;1.95;;;1.52;;
72929;SDS011;61073;54.260;20.816;2022-09-09T04:46:27;2.85;;;1.65;;
72929;SDS011;61073;54.260;20.816;2022-09-09T04:48:54;2.70;;;1.55;;
72929;SDS011;61073;54.260;20.816;2022-09-09T04:51:20;3.47;;;1.63;;
72929;SDS011;61073;54.260;20.816;2022-09-09T04:53:47;3.17;;;1.63;;
72929;SDS011;61073;54.260;20.816;2022-09-09T04:56:16;1.40;;;1.30;;
72929;SDS011;61073;54.260;20.816;2022-09-09T04:58:43;1.67;;;1.42;;
72929;SDS011;61073;54.260;20.816;2022-09-09T05:01:12;2.10;;;1.60;;
72929;SDS011;61073;54.260;20.816;2022-09-09T05:03:41;3.10;;;1.60;;
72929;SDS011;61073;54.260;20.816;2022-09-09T05:06:09;2.97;;;1.30;;
72929;SDS011;61073;54.260;20.816;2022-09-09T05:08:37;2.15;;;1.70;;
72929;SDS011;61073;54.260;20.816;2022-09-09T05:13:54;2.67;;;1.80;;
72929;SDS011;61073;54.260;20.816;2022-09-09T05:16:22;2.58;;;1.77;;
72929;SDS011;61073;54.260;20.816;2022-09-09T05:18:50;3.47;;;2.08;;
72929;SDS011;61073;54.260;20.816;2022-09-09T05:21:18;4.60;;;1.73;;
72929;SDS011;61073;54.260;20.816;2022-09-09T05:23:45;3.53;;;1.88;;
72929;SDS011;61073;54.260;20.816;2022-09-09T05:26:14;3.25;;;2.20;;
72929;SDS011;61073;54.260;20.816;2022-09-09T05:28:42;4.80;;;2.30;;
72929;SDS011;61073;54.260;20.816;2022-09-09T05:31:09;7.88;;;2.10;;
72929;SDS011;61073;54.260;20.816;2022-09-09T05:33:39;5.97;;;1.52;;
72929;SDS011;61073;54.260;20.816;2022-09-09T05:36:07;5.15;;;1.80;;
72929;SDS011;61073;54.260;20.816;2022-09-09T05:38:39;2.70;;;1.77;;
72929;SDS011;61073;54.260;20.816;2022-09-09T05:41:07;1.73;;;1.50;;
72929;SDS011;61073;54.260;20.816;2022-09-09T05:43:34;5.30;;;1.90;;
72929;SDS011;61073;54.260;20.816;2022-09-09T05:46:08;3.83;;;2.08;;
72929;SDS011;61073;54.260;20.816;2022-09-09T05:48:37;5.53;;;1.90;;
72929;SDS011;61073;54.260;20.816;2022-09-09T05:51:06;2.72;;;1.75;;
72929;SDS011;61073;54.260;20.816;2022-09-09T05:53:35;2.85;;;2.15;;
72929;SDS011;61073;54.260;20.816;2022-09-09T05:56:04;5.80;;;2.58;;
72929;SDS011;61073;54.260;20.816;2022-09-09T05:58:32;8.50;;;2.45;;
72929;SDS011;61073;54.260;20.816;2022-09-09T06:01:01;6.80;;;2.25;;
72929;SDS011;61073;54.260;20.816;2022-09-09T06:03:36;4.50;;;2.05;;
72929;SDS011;61073;54.260;20.816;2022-09-09T06:06:05;10.45;;;2.40;;
72929;SDS011;61073;54.260;20.816;2022-09-09T06:08:34;3.63;;;2.53;;
72929;SDS011;61073;54.260;20.816;2022-09-09T06:11:05;4.20;;;2.28;;
72929;SDS011;61073;54.260;20.816;2022-09-09T06:13:37;8.93;;;2.63;;
72929;SDS011;61073;54.260;20.816;2022-09-09T06:16:05;3.92;;;2.70;;
72929;SDS011;61073;54.260;20.816;2022-09-09T06:18:37;5.43;;;2.80;;
72929;SDS011;61073;54.260;20.816;2022-09-09T06:21:05;4.57;;;2.47;;
72929;SDS011;61073;54.260;20.816;2022-09-09T06:23:34;3.75;;;2.50;;
72929;SDS011;61073;54.260;20.816;2022-09-09T06:26:09;6.75;;;2.58;;
72929;SDS011;61073;54.260;20.816;2022-09-09T06:28:36;4.18;;;2.47;;
72929;SDS011;61073;54.260;20.816;2022-09-09T06:31:05;4.38;;;2.60;;
72929;SDS011;61073;54.260;20.816;2022-09-09T06:33:34;4.63;;;2.92;;
72929;SDS011;61073;54.260;20.816;2022-09-09T06:36:05;4.85;;;3.03;;
72929;SDS011;61073;54.260;20.816;2022-09-09T06:38:32;5.60;;;2.70;;
72929;SDS011;61073;54.260;20.816;2022-09-09T06:40:59;4.80;;;2.63;;
72929;SDS011;61073;54.260;20.816;2022-09-09T06:43:26;6.50;;;3.20;;
72929;SDS011;61073;54.260;20.816;2022-09-09T06:48:20;7.93;;;2.67;;
72929;SDS011;61073;54.260;20.816;2022-09-09T06:50:47;5.53;;;3.03;;
72929;SDS011;61073;54.260;20.816;2022-09-09T06:53:16;7.43;;;3.20;;
72929;SDS011;61073;54.260;20.816;2022-09-09T06:55:45;8.65;;;3.40;;
72929;SDS011;61073;54.260;20.816;2022-09-09T06:58:12;6.05;;;3.03;;
72929;SDS011;61073;54.260;20.816;2022-09-09T07:03:05;6.53;;;3.00;;
72929;SDS011;61073;54.260;20.816;2022-09-09T07:07:58;9.23;;;4.05;;
72929;SDS011;61073;54.260;20.816;2022-09-09T07:10:25;11.80;;;3.90;;
72929;SDS011;61073;54.260;20.816;2022-09-09T07:12:52;12.38;;;3.50;;
72929;SDS011;61073;54.260;20.816;2022-09-09T07:15:21;20.65;;;3.90;;
72929;SDS011;61073;54.260;20.816;2022-09-09T07:17:48;12.68;;;4.20;;
72929;SDS011;61073;54.260;20.816;2022-09-09T07:20:15;8.52;;;3.17;;
72929;SDS011;61073;54.260;20.816;2022-09-09T07:22:42;13.90;;;3.95;;
72929;SDS011;61073;54.260;20.816;2022-09-09T07:25:08;10.13;;;3.72;;
72929;SDS011;61073;54.260;20.816;2022-09-09T07:27:35;12.85;;;3.83;;
72929;SDS011;61073;54.260;20.816;2022-09-09T07:30:02;11.45;;;4.00;;
72929;SDS011;61073;54.260;20.816;2022-09-09T07:32:29;10.20;;;3.80;;
72929;SDS011;61073;54.260;20.816;2022-09-09T07:39:50;8.10;;;3.38;;
72929;SDS011;61073;54.260;20.816;2022-09-09T07:42:17;9.27;;;3.90;;
72929;SDS011;61073;54.260;20.816;2022-09-09T07:44:45;10.20;;;4.18;;
72929;SDS011;61073;54.260;20.816;2022-09-09T07:47:12;9.88;;;3.47;;
72929;SDS011;61073;54.260;20.816;2022-09-09T07:52:05;10.20;;;3.70;;
72929;SDS011;61073;54.260;20.816;2022-09-09T07:54:32;11.38;;;4.10;;
72929;SDS011;61073;54.260;20.816;2022-09-09T07:56:59;11.45;;;4.47;;
72929;SDS011;61073;54.260;20.816;2022-09-09T08:01:56;10.38;;;3.72;;
72929;SDS011;61073;54.260;20.816;2022-09-09T08:04:24;4.80;;;3.38;;
72929;SDS011;61073;54.260;20.816;2022-09-09T08:06:54;6.55;;;3.55;;
72929;SDS011;61073;54.260;20.816;2022-09-09T08:09:25;6.45;;;3.53;;
72929;SDS011;61073;54.260;20.816;2022-09-09T08:11:55;6.00;;;3.42;;
72929;SDS011;61073;54.260;20.816;2022-09-09T08:14:23;15.57;;;4.45;;
72929;SDS011;61073;54.260;20.816;2022-09-09T08:16:51;6.68;;;4.03;;
72929;SDS011;61073;54.260;20.816;2022-09-09T08:19:19;8.43;;;4.25;;
72929;SDS011;61073;54.260;20.816;2022-09-09T08:21:46;13.98;;;4.10;;
72929;SDS011;61073;54.260;20.816;2022-09-09T08:24:15;11.50;;;4.55;;
72929;SDS011;61073;54.260;20.816;2022-09-09T08:26:45;6.22;;;3.95;;
72929;SDS011;61073;54.260;20.816;2022-09-09T08:29:14;7.43;;;3.78;;
72929;SDS011;61073;54.260;20.816;2022-09-09T08:31:43;8.73;;;3.60;;
72929;SDS011;61073;54.260;20.816;2022-09-09T08:34:14;7.75;;;3.80;;
72929;SDS011;61073;54.260;20.816;2022-09-09T08:39:09;5.60;;;3.22;;
72929;SDS011;61073;54.260;20.816;2022-09-09T08:44:37;5.85;;;3.38;;
72929;SDS011;61073;54.260;20.816;2022-09-09T08:50:22;13.32;;;3.80;;
72929;SDS011;61073;54.260;20.816;2022-09-09T08:58:28;10.45;;;4.43;;
72929;SDS011;61073;54.260;20.816;2022-09-09T09:12:32;13.73;;;3.97;;
72929;SDS011;61073;54.260;20.816;2022-09-09T09:15:09;10.27;;;3.60;;
72929;SDS011;61073;54.260;20.816;2022-09-09T09:17:57;12.63;;;3.83;;
72929;SDS011;61073;54.260;20.816;2022-09-09T09:20:28;8.40;;;3.60;;
72929;SDS011;61073;54.260;20.816;2022-09-09T09:23:09;7.18;;;4.10;;
72929;SDS011;61073;54.260;20.816;2022-09-09T09:25:48;13.02;;;3.53;;
72929;SDS011;61073;54.260;20.816;2022-09-09T09:28:22;9.63;;;3.78;;
72929;SDS011;61073;54.260;20.816;2022-09-09T09:36:19;11.60;;;3.72;;
72929;SDS011;61073;54.260;20.816;2022-09-09T09:38:56;15.30;;;3.65;;
72929;SDS011;61073;54.260;20.816;2022-09-09T09:41:47;8.15;;;3.63;;
72929;SDS011;61073;54.260;20.816;2022-09-09T09:46:46;16.02;;;4.80;;
72929;SDS011;61073;54.260;20.816;2022-09-09T09:49:13;59.13;;;6.13;;
72929;SDS011;61073;54.260;20.816;2022-09-09T09:56:42;19.38;;;4.22;;
72929;SDS011;61073;54.260;20.816;2022-09-09T10:07:43;11.38;;;4.43;;
72929;SDS011;61073;54.260;20.816;2022-09-09T10:13:20;11.85;;;3.55;;
72929;SDS011;61073;54.260;20.816;2022-09-09T10:21:14;14.73;;;3.28;;
72929;SDS011;61073;54.260;20.816;2022-09-09T10:27:14;13.88;;;3.58;;
72929;SDS011;61073;54.260;20.816;2022-09-09T10:29:55;11.25;;;4.18;;
72929;SDS011;61073;54.260;20.816;2022-09-09T10:38:30;29.75;;;4.20;;
72929;SDS011;61073;54.260;20.816;2022-09-09T10:41:07;21.63;;;4.32;;
72929;SDS011;61073;54.260;20.816;2022-09-09T10:49:16;23.63;;;4.43;;
72929;SDS011;61073;54.260;20.816;2022-09-09T10:54:42;25.30;;;4.68;;
72929;SDS011;61073;54.260;20.816;2022-09-09T10:57:25;17.73;;;4.18;;
72929;SDS011;61073;54.260;20.816;2022-09-09T11:00:05;16.80;;;4.15;;
72929;SDS011;61073;54.260;20.816;2022-09-09T11:02:34;9.52;;;4.00;;
72929;SDS011;61073;54.260;20.816;2022-09-09T11:21:43;8.25;;;4.07;;
72929;SDS011;61073;54.260;20.816;2022-09-09T11:40:58;13.80;;;4.30;;
